Time;durP1;ratioP1;P1;durP2;ratioP2;P2;SDS_P1;SDS_P2;PMS_P1;PMS_P2;Temp;Humidity;BMP_temperature;BMP_pressure;BME280_temperature;BME280_humidity;BME280_pressure;Samples;Min_cycle;Max_cycle;Signal;HPM_P1;HPM_P2
2023/02/28 00:01:47;;;;;;;8.97;4.13;;;3.00;99.90;;;;;;5004450;28;20322;-77
2023/02/28 00:04:15;;;;;;;10.53;4.00;;;3.00;99.90;;;;;;5003698;28;20303;-79
2023/02/28 00:06:42;;;;;;;4.90;3.70;;;3.10;99.90;;;;;;5005903;28;20199;-79
2023/02/28 00:09:09;;;;;;;7.50;4.10;;;3.10;99.90;;;;;;5005023;28;20537;-78
2023/02/28 00:11:37;;;;;;;7.77;3.70;;;3.10;99.90;;;;;;5003403;28;20242;-79
2023/02/28 00:14:04;;;;;;;10.67;4.33;;;3.10;99.90;;;;;;5004394;28;20215;-78
2023/02/28 00:16:31;;;;;;;9.50;4.33;;;3.10;99.90;;;;;;5005316;28;20385;-79
2023/02/28 00:18:58;;;;;;;9.17;4.60;;;3.20;99.90;;;;;;5004219;28;20219;-77
2023/02/28 00:21:26;;;;;;;8.43;3.50;;;3.20;99.90;;;;;;4987126;28;20623;-76
2023/02/28 00:23:53;;;;;;;6.20;3.33;;;3.20;99.90;;;;;;4984989;28;20208;-78
2023/02/28 00:26:20;;;;;;;8.10;3.80;;;3.30;99.90;;;;;;4985228;28;20202;-79
2023/02/28 00:28:48;;;;;;;7.47;4.50;;;3.30;99.90;;;;;;4994630;28;20203;-78
2023/02/28 00:31:15;;;;;;;5.57;3.47;;;3.30;99.90;;;;;;5002766;28;20200;-77
2023/02/28 00:33:41;;;;;;;6.70;3.63;;;3.40;99.90;;;;;;5005029;28;20206;-78
2023/02/28 00:36:10;;;;;;;9.03;3.57;;;3.40;99.90;;;;;;5004942;28;20199;-77
2023/02/28 00:38:40;;;;;;;6.43;3.30;;;3.40;99.90;;;;;;5003567;28;20405;-78
2023/02/28 00:41:07;;;;;;;6.10;3.77;;;3.40;99.90;;;;;;5004704;28;20204;-76
2023/02/28 00:43:35;;;;;;;7.00;3.70;;;3.50;99.90;;;;;;5004137;28;20428;-78
2023/02/28 00:46:02;;;;;;;6.27;4.10;;;3.50;99.90;;;;;;5002894;28;20207;-78
2023/02/28 00:48:29;;;;;;;7.67;4.47;;;3.50;99.90;;;;;;5004903;28;20209;-77
2023/02/28 00:50:56;;;;;;;10.40;3.40;;;3.50;99.90;;;;;;5003686;28;20206;-78
2023/02/28 00:53:23;;;;;;;9.00;3.60;;;3.50;99.90;;;;;;5003867;28;20592;-79
2023/02/28 00:55:52;;;;;;;7.63;3.80;;;3.60;99.90;;;;;;5004372;28;20215;-75
2023/02/28 00:58:19;;;;;;;7.43;3.20;;;3.50;99.90;;;;;;5004544;28;20701;-75
2023/02/28 01:00:48;;;;;;;9.03;3.77;;;3.60;99.90;;;;;;5003590;28;20268;-79
2023/02/28 01:03:16;;;;;;;6.57;3.37;;;3.60;99.90;;;;;;5003726;28;20637;-78
2023/02/28 01:05:43;;;;;;;6.97;3.27;;;3.60;99.90;;;;;;5004122;28;20208;-77
2023/02/28 01:08:10;;;;;;;6.97;3.10;;;3.70;99.90;;;;;;5002688;28;20206;-78
2023/02/28 01:10:38;;;;;;;5.23;3.30;;;3.80;99.90;;;;;;5004245;28;20213;-78
2023/02/28 01:13:06;;;;;;;7.03;3.70;;;3.80;99.90;;;;;;5002791;28;20215;-76
2023/02/28 01:15:34;;;;;;;6.53;3.93;;;3.90;99.90;;;;;;5004360;28;20206;-78
2023/02/28 01:18:01;;;;;;;7.40;3.27;;;4.00;99.90;;;;;;5003149;28;20206;-78
2023/02/28 01:20:28;;;;;;;8.37;3.50;;;4.10;99.90;;;;;;5003688;28;20209;-77
2023/02/28 01:22:55;;;;;;;7.53;3.40;;;4.20;99.90;;;;;;5004066;28;20203;-77
2023/02/28 01:25:22;;;;;;;6.97;3.40;;;4.20;99.90;;;;;;5003393;28;20200;-77
2023/02/28 01:27:49;;;;;;;10.13;3.87;;;4.30;99.90;;;;;;5003191;28;20624;-76
2023/02/28 01:30:17;;;;;;;8.13;4.13;;;4.30;99.90;;;;;;5003756;28;20203;-78
2023/02/28 01:32:44;;;;;;;8.67;3.60;;;4.30;99.90;;;;;;4999952;28;20322;-78
2023/02/28 01:35:11;;;;;;;6.57;3.40;;;4.30;99.90;;;;;;4983804;28;20204;-76
2023/02/28 01:37:38;;;;;;;9.33;4.30;;;4.30;99.90;;;;;;4984217;28;20203;-77
2023/02/28 01:40:06;;;;;;;7.03;3.10;;;4.40;99.90;;;;;;4983942;28;20234;-78
2023/02/28 01:42:33;;;;;;;8.50;3.50;;;4.40;99.90;;;;;;4982773;28;20211;-78
2023/02/28 01:45:04;;;;;;;7.47;3.33;;;4.40;99.90;;;;;;4983548;28;21100;-78
2023/02/28 01:47:39;;;;;;;5.23;3.30;;;4.40;99.90;;;;;;4983679;28;21147;-79
2023/02/28 01:50:12;;;;;;;9.87;4.03;;;4.40;99.90;;;;;;4990059;28;20198;-79
2023/02/28 01:52:41;;;;;;;8.17;3.60;;;4.40;99.90;;;;;;5003550;28;20199;-77
2023/02/28 01:55:11;;;;;;;7.13;3.40;;;4.40;99.90;;;;;;5002436;28;20203;-77
2023/02/28 01:57:43;;;;;;;6.83;3.90;;;4.30;99.90;;;;;;5001743;28;20993;-78
2023/02/28 02:00:14;;;;;;;6.27;3.07;;;4.30;99.90;;;;;;5002627;28;20879;-78
2023/02/28 02:02:44;;;;;;;10.27;3.37;;;4.30;99.90;;;;;;5002613;28;20930;-78
2023/02/28 02:05:15;;;;;;;8.37;3.37;;;4.30;99.90;;;;;;5001888;28;20211;-78
2023/02/28 02:07:45;;;;;;;7.33;3.20;;;4.30;99.90;;;;;;5002419;28;20207;-79
2023/02/28 02:10:16;;;;;;;5.63;3.30;;;4.30;99.90;;;;;;5000233;28;20214;-78
2023/02/28 02:13:11;;;;;;;9.43;4.20;;;4.40;99.90;;;;;;5002030;28;20257;-79
2023/02/28 02:15:43;;;;;;;7.60;3.53;;;4.40;99.90;;;;;;4994038;28;20226;-77
2023/02/28 02:18:20;;;;;;;9.07;4.07;;;4.40;99.90;;;;;;4982647;28;20211;-78
2023/02/28 02:21:16;;;;;;;10.83;3.83;;;4.40;99.90;;;;;;4982913;28;20206;-78
2023/02/28 02:24:36;;;;;;;10.17;3.67;;;4.30;99.90;;;;;;4996766;28;20213;-79
2023/02/28 02:27:13;;;;;;;15.43;4.50;;;4.40;99.90;;;;;;5001518;28;20210;-79
2023/02/28 02:30:07;;;;;;;8.10;4.60;;;4.40;99.90;;;;;;5002364;28;20503;-79
2023/02/28 02:33:41;;;;;;;6.47;4.07;;;4.40;99.90;;;;;;5001009;28;20199;-77
2023/02/28 02:36:16;;;;;;;8.90;4.57;;;4.40;99.90;;;;;;4865602;29;20207;-79
2023/02/28 02:38:49;;;;;;;8.87;4.53;;;4.40;99.90;;;;;;4864572;29;20215;-79
2023/02/28 02:41:23;;;;;;;10.90;4.37;;;4.40;99.90;;;;;;4945816;28;20448;-79
2023/02/28 02:43:53;;;;;;;9.83;4.47;;;4.40;99.90;;;;;;4982640;28;20687;-79
2023/02/28 02:46:22;;;;;;;5.63;3.70;;;4.40;99.90;;;;;;4994204;28;20230;-79
2023/02/28 02:56:09;;;;;;;9.53;4.50;;;4.40;99.90;;;;;;4893367;28;20238;-77
2023/02/28 02:58:41;;;;;;;9.47;4.50;;;4.30;99.90;;;;;;5008425;28;20203;-79
2023/02/28 03:01:11;;;;;;;7.47;4.33;;;4.30;99.90;;;;;;5001018;28;20222;-80
2023/02/28 03:03:38;;;;;;;9.57;4.73;;;4.30;99.90;;;;;;5001958;28;20912;-79
2023/02/28 03:06:05;;;;;;;7.37;4.80;;;4.30;99.90;;;;;;5000764;28;20207;-78
2023/02/28 03:08:36;;;;;;;9.57;4.70;;;4.30;99.90;;;;;;5001377;28;20191;-78
2023/02/28 03:11:08;;;;;;;8.17;4.83;;;4.30;99.90;;;;;;5000412;28;20290;-78
2023/02/28 03:14:01;;;;;;;11.93;5.13;;;4.30;99.90;;;;;;5001470;28;20207;-76
2023/02/28 03:16:50;;;;;;;9.07;5.30;;;4.30;99.90;;;;;;5001810;28;20225;-79
2023/02/28 03:19:32;;;;;;;13.07;5.80;;;4.20;99.90;;;;;;5001129;28;20581;-78
2023/02/28 03:22:15;;;;;;;9.40;5.07;;;4.30;99.90;;;;;;5001287;28;20199;-77
2023/02/28 03:24:48;;;;;;;7.17;4.40;;;4.20;99.90;;;;;;5001213;28;20556;-79
2023/02/28 03:27:24;;;;;;;10.30;5.17;;;4.20;99.90;;;;;;4999051;28;20202;-80
2023/02/28 03:29:59;;;;;;;9.50;4.63;;;4.20;99.90;;;;;;5000299;28;20206;-76
2023/02/28 03:32:28;;;;;;;7.77;5.43;;;4.20;99.90;;;;;;5002106;28;20199;-78
2023/02/28 03:35:03;;;;;;;7.73;5.00;;;4.20;99.90;;;;;;5000769;28;20303;-77
2023/02/28 03:37:34;;;;;;;10.97;5.17;;;4.20;99.90;;;;;;5000421;28;20599;-77
2023/02/28 03:40:08;;;;;;;8.90;4.40;;;4.20;99.90;;;;;;5001004;28;20234;-77
2023/02/28 03:42:39;;;;;;;10.03;5.03;;;4.20;99.90;;;;;;5001384;28;20296;-77
2023/02/28 03:45:13;;;;;;;6.07;4.73;;;4.20;99.90;;;;;;5001029;28;20210;-77
2023/02/28 03:47:44;;;;;;;9.33;4.47;;;4.20;99.90;;;;;;5001644;28;20203;-79
2023/02/28 03:50:18;;;;;;;7.77;4.37;;;4.20;99.90;;;;;;5000516;28;20294;-77
2023/02/28 03:52:50;;;;;;;9.50;4.63;;;4.20;99.90;;;;;;5000590;28;20556;-76
2023/02/28 03:55:18;;;;;;;7.70;4.23;;;4.20;99.90;;;;;;5000855;28;20381;-76
2023/02/28 03:57:57;;;;;;;5.60;4.07;;;4.20;99.90;;;;;;4999567;28;20230;-76
2023/02/28 04:00:31;;;;;;;5.80;3.67;;;4.20;99.90;;;;;;5000178;28;20231;-78
2023/02/28 04:02:58;;;;;;;5.63;3.80;;;4.20;99.90;;;;;;4999854;28;20241;-76
2023/02/28 04:05:26;;;;;;;6.97;4.20;;;4.20;99.90;;;;;;5001412;28;20204;-78
2023/02/28 04:07:53;;;;;;;6.33;4.00;;;4.20;99.90;;;;;;4991851;28;20216;-79
2023/02/28 04:10:20;;;;;;;9.77;4.77;;;4.20;99.90;;;;;;4981265;28;20232;-79
2023/02/28 04:12:49;;;;;;;8.33;4.07;;;4.20;99.90;;;;;;4990522;28;20211;-77
2023/02/28 04:15:16;;;;;;;3.90;3.23;;;4.20;99.90;;;;;;5001514;28;20326;-77
2023/02/28 04:17:43;;;;;;;6.60;3.13;;;4.20;99.90;;;;;;4999820;28;20211;-78
2023/02/28 04:20:11;;;;;;;7.53;3.43;;;4.20;99.90;;;;;;5002649;28;20242;-78
2023/02/28 04:22:38;;;;;;;6.80;3.60;;;4.10;99.90;;;;;;5004051;28;20205;-77
2023/02/28 04:25:07;;;;;;;4.43;3.23;;;4.20;99.90;;;;;;5004733;28;20602;-76
2023/02/28 04:27:34;;;;;;;5.33;3.63;;;4.20;99.90;;;;;;5003521;28;20243;-77
2023/02/28 04:30:02;;;;;;;4.93;3.40;;;4.10;99.90;;;;;;5004130;28;20211;-80
2023/02/28 04:32:29;;;;;;;4.17;3.00;;;4.20;99.90;;;;;;5003693;28;20254;-76
2023/02/28 04:34:56;;;;;;;6.40;3.83;;;4.10;99.90;;;;;;5004801;28;20290;-78
2023/02/28 04:37:27;;;;;;;5.13;3.13;;;4.10;99.90;;;;;;5003679;28;20221;-78
2023/02/28 04:39:54;;;;;;;7.13;3.93;;;4.10;99.90;;;;;;5003271;28;20215;-78
2023/02/28 04:42:21;;;;;;;4.83;3.07;;;4.10;99.90;;;;;;5003361;28;20203;-77
2023/02/28 04:44:48;;;;;;;3.50;2.97;;;4.10;99.90;;;;;;5002962;28;20204;-78
2023/02/28 04:47:17;;;;;;;3.80;3.10;;;4.10;99.90;;;;;;5003035;28;20295;-78
2023/02/28 04:49:44;;;;;;;7.07;3.90;;;4.10;99.90;;;;;;5004050;28;20207;-77
2023/02/28 04:52:13;;;;;;;8.73;4.07;;;4.10;99.90;;;;;;5002928;28;20200;-76
2023/02/28 04:54:39;;;;;;;7.20;4.40;;;4.10;99.90;;;;;;5003636;28;20219;-77
2023/02/28 04:57:07;;;;;;;7.87;4.53;;;4.10;99.90;;;;;;5003230;28;20843;-77
2023/02/28 04:59:34;;;;;;;7.43;4.50;;;4.20;99.90;;;;;;5003590;28;20850;-79
2023/02/28 05:02:06;;;;;;;5.97;3.97;;;4.20;99.90;;;;;;5002634;28;20906;-77
2023/02/28 05:04:35;;;;;;;4.70;3.50;;;4.20;99.90;;;;;;5003326;28;20207;-77
2023/02/28 05:07:02;;;;;;;5.83;3.97;;;4.20;99.90;;;;;;5001982;28;20302;-78
2023/02/28 05:09:30;;;;;;;5.40;3.53;;;4.30;99.90;;;;;;5003515;28;20199;-78
2023/02/28 05:11:57;;;;;;;9.20;3.97;;;4.30;99.90;;;;;;5003257;28;20337;-79
2023/02/28 05:14:25;;;;;;;8.97;4.43;;;4.30;99.90;;;;;;5002292;28;20385;-78
2023/02/28 05:16:52;;;;;;;7.40;3.73;;;4.30;99.90;;;;;;5003112;28;20195;-79
2023/02/28 05:19:19;;;;;;;7.97;3.50;;;4.30;99.90;;;;;;5002249;28;20215;-79
2023/02/28 05:21:52;;;;;;;8.33;3.70;;;4.30;99.90;;;;;;5002554;28;20793;-79
2023/02/28 05:24:22;;;;;;;7.30;3.13;;;4.30;99.90;;;;;;5004042;28;20195;-79
2023/02/28 05:26:50;;;;;;;6.47;3.40;;;4.30;99.90;;;;;;5002604;28;20195;-79
2023/02/28 05:29:17;;;;;;;5.77;3.33;;;4.30;99.90;;;;;;5003626;28;20663;-78
2023/02/28 05:31:44;;;;;;;5.53;3.23;;;4.30;99.90;;;;;;5002726;28;20206;-79
2023/02/28 05:34:12;;;;;;;8.90;4.17;;;4.30;99.90;;;;;;5002692;28;20199;-78
2023/02/28 05:36:40;;;;;;;7.23;3.23;;;4.30;99.90;;;;;;5003535;28;20579;-78
2023/02/28 05:39:12;;;;;;;5.27;3.83;;;4.40;99.90;;;;;;5002034;28;20211;-78
2023/02/28 05:41:40;;;;;;;12.40;5.87;;;4.40;99.90;;;;;;5002438;28;20797;-79
2023/02/28 05:44:07;;;;;;;10.10;4.80;;;4.40;99.90;;;;;;5002771;28;20769;-79
2023/02/28 05:46:34;;;;;;;9.43;4.80;;;4.40;99.90;;;;;;5002889;28;20203;-78
2023/02/28 05:49:00;;;;;;;8.10;4.00;;;4.40;99.90;;;;;;5002606;28;20298;-79
2023/02/28 05:51:27;;;;;;;9.20;5.07;;;4.40;99.90;;;;;;5003372;28;20213;-78
2023/02/28 05:53:54;;;;;;;6.97;4.10;;;4.50;99.90;;;;;;5003300;28;20437;-78
2023/02/28 05:56:23;;;;;;;4.97;4.07;;;4.40;99.90;;;;;;5001546;28;20309;-80
2023/02/28 05:58:49;;;;;;;8.60;4.70;;;4.50;99.90;;;;;;5002611;28;20909;-79
2023/02/28 06:01:27;;;;;;;8.47;4.67;;;4.50;99.90;;;;;;4990520;28;20235;-79
2023/02/28 06:03:54;;;;;;;10.67;5.37;;;4.50;99.90;;;;;;4983271;28;20573;-80
2023/02/28 06:06:21;;;;;;;9.47;4.73;;;4.50;99.90;;;;;;4983604;28;20219;-79
2023/02/28 06:08:47;;;;;;;13.00;6.27;;;4.50;99.90;;;;;;4985978;28;20211;-78
2023/02/28 06:11:14;;;;;;;9.40;5.07;;;4.50;99.90;;;;;;5002472;28;20610;-78
2023/02/28 06:13:43;;;;;;;11.43;5.57;;;4.50;99.90;;;;;;5003027;28;20205;-79
2023/02/28 06:16:12;;;;;;;5.87;4.53;;;4.50;99.90;;;;;;5000162;28;20333;-78
2023/02/28 06:18:39;;;;;;;8.77;4.60;;;4.60;99.90;;;;;;5002753;28;20207;-78
2023/02/28 06:21:06;;;;;;;12.13;5.73;;;4.60;99.90;;;;;;5001340;28;20227;-78
2023/02/28 06:23:33;;;;;;;8.53;5.50;;;4.60;99.90;;;;;;5002284;28;20218;-78
2023/02/28 06:26:00;;;;;;;7.80;5.13;;;4.50;99.90;;;;;;5000974;28;20207;-78
2023/02/28 06:28:27;;;;;;;6.70;6.00;;;4.50;99.90;;;;;;5002756;28;20206;-78
2023/02/28 06:30:55;;;;;;;9.33;6.57;;;4.50;99.90;;;;;;5001332;28;20199;-79
2023/02/28 06:33:22;;;;;;;11.97;7.07;;;4.50;99.90;;;;;;5002568;28;20604;-78
2023/02/28 06:35:51;;;;;;;11.10;6.73;;;4.40;99.90;;;;;;5002031;28;20203;-78
2023/02/28 06:38:19;;;;;;;12.97;8.30;;;4.40;99.90;;;;;;5001560;28;20392;-79
2023/02/28 06:40:53;;;;;;;9.30;6.90;;;4.40;99.90;;;;;;5001859;28;20223;-79
2023/02/28 06:43:20;;;;;;;13.93;7.70;;;4.40;99.90;;;;;;4990761;28;20732;-78
2023/02/28 06:45:47;;;;;;;9.53;6.43;;;4.30;99.90;;;;;;4981600;28;20203;-78
2023/02/28 06:48:16;;;;;;;10.53;6.77;;;4.30;99.90;;;;;;4983636;28;20199;-79
2023/02/28 06:50:43;;;;;;;11.77;7.27;;;4.30;99.90;;;;;;5001043;28;20315;-78
2023/02/28 06:53:10;;;;;;;11.07;7.80;;;4.30;99.90;;;;;;5000271;28;20222;-78
2023/02/28 06:55:38;;;;;;;11.33;7.40;;;4.30;99.90;;;;;;5001678;28;20289;-78
2023/02/28 06:58:14;;;;;;;13.40;8.33;;;4.30;99.90;;;;;;5000772;28;20207;-78
2023/02/28 07:00:42;;;;;;;10.73;7.67;;;4.30;99.90;;;;;;5001579;28;20234;-81
2023/02/28 07:03:09;;;;;;;11.73;8.37;;;4.20;99.90;;;;;;5001623;28;20243;-77
2023/02/28 07:05:38;;;;;;;11.60;7.73;;;4.30;99.90;;;;;;5002161;28;20211;-79
2023/02/28 07:08:06;;;;;;;12.83;8.50;;;4.20;99.90;;;;;;4993063;28;20207;-79
2023/02/28 07:10:34;;;;;;;13.20;8.37;;;4.20;99.90;;;;;;4990616;28;20195;-78
2023/02/28 07:13:01;;;;;;;14.17;8.20;;;4.30;99.90;;;;;;4997742;28;20213;-77
2023/02/28 07:15:28;;;;;;;13.27;8.90;;;4.30;99.90;;;;;;5002351;28;20237;-77
2023/02/28 07:17:56;;;;;;;18.13;8.63;;;4.30;99.90;;;;;;5002581;28;20199;-78
2023/02/28 07:20:23;;;;;;;15.07;8.67;;;4.30;99.90;;;;;;5001815;28;20253;-78
2023/02/28 07:22:56;;;;;;;13.37;9.37;;;4.30;99.90;;;;;;5001197;28;20616;-78
2023/02/28 07:25:23;;;;;;;15.00;9.40;;;4.30;99.90;;;;;;5002631;28;20237;-77
2023/02/28 07:27:50;;;;;;;15.20;9.40;;;4.30;99.90;;;;;;4997996;28;20210;-78
2023/02/28 07:30:18;;;;;;;18.57;11.50;;;4.30;99.90;;;;;;4984257;28;20318;-78
2023/02/28 07:32:45;;;;;;;18.87;11.13;;;4.30;99.90;;;;;;4981753;28;20198;-78
2023/02/28 07:35:12;;;;;;;17.40;11.40;;;4.20;99.90;;;;;;4980785;28;20207;-78
2023/02/28 07:44:40;;;;;;;19.47;12.77;;;4.00;99.90;;;;;;5009938;28;20230;-78
2023/02/28 07:47:08;;;;;;;18.33;13.20;;;4.00;99.90;;;;;;5009860;28;20199;-76
2023/02/28 07:49:35;;;;;;;20.77;14.07;;;4.00;99.90;;;;;;5010012;28;20203;-78
2023/02/28 07:52:03;;;;;;;21.33;15.30;;;3.90;99.90;;;;;;5009939;28;20249;-79
2023/02/28 07:57:55;;;;;;;19.00;14.37;;;3.90;99.90;;;;;;5004487;28;20203;-80
2023/02/28 08:00:24;;;;;;;22.60;15.73;;;3.80;99.90;;;;;;5014318;28;20237;-77
2023/02/28 08:02:51;;;;;;;17.63;14.00;;;3.70;99.90;;;;;;5014323;28;20868;-78
2023/02/28 08:05:18;;;;;;;22.53;14.13;;;3.80;99.90;;;;;;5011417;28;20210;-77
2023/02/28 08:07:47;;;;;;;20.87;13.63;;;3.70;99.90;;;;;;5003874;28;20595;-77
2023/02/28 08:10:14;;;;;;;18.77;12.83;;;3.70;99.90;;;;;;5004729;28;20239;-77
2023/02/28 08:12:41;;;;;;;16.43;12.57;;;3.70;99.90;;;;;;5007906;28;20289;-77
2023/02/28 08:15:09;;;;;;;17.40;12.03;;;3.70;99.90;;;;;;5024942;28;20199;-77
2023/02/28 08:17:37;;;;;;;15.20;12.00;;;3.70;99.90;;;;;;5014812;28;20278;-77
2023/02/28 08:20:05;;;;;;;12.80;10.60;;;3.70;99.90;;;;;;5014711;28;20329;-78
2023/02/28 08:22:32;;;;;;;13.27;10.50;;;3.70;99.90;;;;;;5001608;28;20204;-78
2023/02/28 08:24:58;;;;;;;14.70;9.87;;;3.60;99.90;;;;;;4995680;28;20207;-78
2023/02/28 08:27:25;;;;;;;12.77;10.37;;;3.60;99.90;;;;;;4994986;28;20197;-79
2023/02/28 08:29:52;;;;;;;11.20;10.00;;;3.40;99.90;;;;;;5009633;28;20298;-78
2023/02/28 08:32:19;;;;;;;11.87;10.10;;;3.40;99.90;;;;;;5013399;28;20564;-78
2023/02/28 08:34:47;;;;;;;11.77;10.37;;;3.40;99.90;;;;;;5013487;28;20480;-78
2023/02/28 08:37:14;;;;;;;11.93;9.87;;;3.30;99.90;;;;;;5013715;28;20295;-78
2023/02/28 08:39:41;;;;;;;11.80;10.27;;;3.20;99.90;;;;;;5014347;28;20195;-78
2023/02/28 08:42:08;;;;;;;13.37;11.63;;;3.20;99.90;;;;;;5013217;28;20321;-78
2023/02/28 08:44:35;;;;;;;12.37;11.07;;;3.30;99.90;;;;;;5013947;28;20207;-78
2023/02/28 08:47:02;;;;;;;11.37;10.17;;;3.20;99.90;;;;;;5014089;28;20203;-78
2023/02/28 08:49:29;;;;;;;12.80;11.40;;;3.20;99.90;;;;;;5014495;28;20295;-78
2023/02/28 08:51:57;;;;;;;14.20;12.13;;;3.20;99.90;;;;;;5013378;28;20202;-77
2023/02/28 08:54:24;;;;;;;14.37;12.17;;;3.20;99.90;;;;;;5009114;28;20203;-78
2023/02/28 08:56:51;;;;;;;14.87;11.97;;;3.30;99.90;;;;;;5011963;28;20631;-78
2023/02/28 08:59:18;;;;;;;13.90;12.40;;;3.20;99.90;;;;;;5011670;28;20241;-78
2023/02/28 09:01:45;;;;;;;12.60;11.27;;;3.20;99.90;;;;;;5011810;28;20242;-78
2023/02/28 09:04:12;;;;;;;13.73;12.03;;;3.20;99.90;;;;;;5010732;28;20600;-78
2023/02/28 09:06:39;;;;;;;12.40;11.10;;;3.20;99.90;;;;;;5011777;28;20195;-79
2023/02/28 09:09:09;;;;;;;13.07;11.03;;;3.20;99.90;;;;;;5014172;28;20257;-78
2023/02/28 09:11:36;;;;;;;12.53;11.23;;;3.10;99.90;;;;;;5012874;28;20227;-79
2023/02/28 09:14:04;;;;;;;11.97;10.70;;;3.20;99.90;;;;;;4994555;28;20200;-80
2023/02/28 09:16:32;;;;;;;11.63;10.43;;;3.10;99.90;;;;;;4994534;28;20600;-79
2023/02/28 09:18:59;;;;;;;12.73;10.00;;;3.20;99.90;;;;;;4999938;28;20234;-78
2023/02/28 09:21:26;;;;;;;11.03;9.87;;;3.20;99.90;;;;;;5011056;28;20211;-78
2023/02/28 09:23:53;;;;;;;11.87;9.03;;;3.20;99.90;;;;;;5013447;28;20222;-79
2023/02/28 09:26:24;;;;;;;13.13;10.03;;;3.20;99.90;;;;;;5010517;28;20293;-79
2023/02/28 09:28:51;;;;;;;12.10;10.07;;;3.30;99.90;;;;;;5013486;28;20282;-78
2023/02/28 09:31:21;;;;;;;10.47;9.33;;;3.40;99.90;;;;;;5013801;28;20205;-78
2023/02/28 09:33:48;;;;;;;10.77;9.40;;;3.40;99.90;;;;;;5008372;28;20208;-78
2023/02/28 09:36:15;;;;;;;11.20;8.83;;;3.50;99.90;;;;;;4993212;28;20286;-78
2023/02/28 09:38:42;;;;;;;13.23;10.53;;;3.50;99.90;;;;;;5004052;28;20298;-77
2023/02/28 09:41:14;;;;;;;12.40;9.67;;;3.50;99.90;;;;;;5013098;28;20219;-78
2023/02/28 09:43:48;;;;;;;12.20;9.50;;;3.50;99.90;;;;;;5013855;28;20666;-78
2023/02/28 09:46:32;;;;;;;11.47;9.77;;;3.60;99.90;;;;;;5013149;28;20278;-78
2023/02/28 09:49:01;;;;;;;10.23;8.70;;;3.70;99.90;;;;;;5002206;28;20192;-77
2023/02/28 09:51:51;;;;;;;12.03;9.63;;;3.70;99.90;;;;;;5011774;28;20796;-77
2023/02/28 09:54:20;;;;;;;12.57;8.87;;;3.70;99.90;;;;;;4993043;28;20589;-78
2023/02/28 09:56:53;;;;;;;10.17;8.57;;;3.70;99.90;;;;;;5007284;28;20321;-77
2023/02/28 09:59:32;;;;;;;10.77;8.70;;;3.80;99.90;;;;;;5013201;28;20198;-78
2023/02/28 10:02:07;;;;;;;13.10;10.10;;;3.90;99.90;;;;;;4992827;28;20666;-78
2023/02/28 10:04:43;;;;;;;12.90;9.53;;;4.00;99.90;;;;;;4998373;28;20591;-78
2023/02/28 10:07:21;;;;;;;14.77;10.67;;;4.00;99.90;;;;;;5013305;28;20195;-78
2023/02/28 10:09:53;;;;;;;11.67;9.70;;;4.00;99.90;;;;;;5012429;28;20214;-78
2023/02/28 10:12:21;;;;;;;11.33;9.07;;;4.00;99.90;;;;;;4993528;28;20200;-78
2023/02/28 10:14:53;;;;;;;15.30;10.30;;;4.00;99.90;;;;;;4994195;28;20207;-79
2023/02/28 10:17:24;;;;;;;14.73;8.77;;;4.10;99.90;;;;;;5011294;28;20286;-78
2023/02/28 10:19:59;;;;;;;12.17;10.50;;;4.10;99.90;;;;;;5013235;28;20507;-80
2023/02/28 10:22:30;;;;;;;17.47;13.37;;;4.10;99.90;;;;;;5009696;28;20623;-80
2023/02/28 10:25:02;;;;;;;15.23;11.67;;;4.20;99.90;;;;;;5009758;28;20299;-80
2023/02/28 10:27:31;;;;;;;13.00;10.53;;;4.30;99.90;;;;;;5009727;28;20544;-79
2023/02/28 10:30:01;;;;;;;13.23;10.50;;;4.40;99.90;;;;;;5006789;28;20283;-80
2023/02/28 10:32:31;;;;;;;10.73;9.33;;;4.50;99.90;;;;;;5010289;28;20195;-78
2023/02/28 10:35:01;;;;;;;11.00;9.37;;;4.50;99.90;;;;;;5009890;28;20265;-78
2023/02/28 10:37:29;;;;;;;12.70;9.90;;;4.60;99.90;;;;;;5007821;28;20215;-79
2023/02/28 10:39:56;;;;;;;9.57;8.57;;;4.70;99.90;;;;;;5012320;28;20250;-79
2023/02/28 10:42:26;;;;;;;10.00;8.30;;;4.70;99.90;;;;;;5012204;28;20232;-80
2023/02/28 10:45:13;;;;;;;11.50;8.20;;;4.70;99.90;;;;;;5009810;28;20611;-78
2023/02/28 10:47:50;;;;;;;10.23;7.87;;;4.70;99.90;;;;;;4999653;28;20207;-79
2023/02/28 10:50:42;;;;;;;9.23;8.23;;;4.80;99.90;;;;;;5007350;28;20708;-80
2023/02/28 10:53:32;;;;;;;10.30;8.13;;;4.90;99.90;;;;;;4992761;28;20207;-79
2023/02/28 10:56:01;;;;;;;9.20;7.43;;;5.00;99.90;;;;;;4992392;28;20216;-81
2023/02/28 10:58:30;;;;;;;8.10;7.17;;;5.00;99.90;;;;;;4992279;28;20196;-79
2023/02/28 11:01:00;;;;;;;9.20;7.37;;;5.10;99.90;;;;;;4993305;28;20695;-78
2023/02/28 11:03:32;;;;;;;9.37;7.47;;;5.20;99.90;;;;;;4995470;28;20311;-80
2023/02/28 11:06:04;;;;;;;8.47;6.97;;;5.10;99.90;;;;;;5009729;28;20291;-79
2023/02/28 11:08:32;;;;;;;6.93;6.23;;;5.20;99.90;;;;;;5001998;28;20627;-79
2023/02/28 11:11:04;;;;;;;10.23;6.90;;;5.20;99.90;;;;;;4992161;28;20593;-79
2023/02/28 11:13:34;;;;;;;7.53;6.53;;;5.20;99.90;;;;;;4992764;28;20191;-78
2023/02/28 11:16:06;;;;;;;8.43;5.80;;;5.30;99.90;;;;;;4999914;28;20290;-78
2023/02/28 11:18:40;;;;;;;7.67;5.97;;;5.40;99.90;;;;;;5011492;28;20620;-79
2023/02/28 11:21:08;;;;;;;7.23;6.13;;;5.60;99.90;;;;;;5011904;28;20219;-77
2023/02/28 11:23:38;;;;;;;10.20;6.80;;;5.70;99.90;;;;;;5011368;28;20289;-79
2023/02/28 11:26:09;;;;;;;8.10;6.60;;;5.90;99.90;;;;;;5001898;28;20231;-79
2023/02/28 11:28:38;;;;;;;9.47;6.20;;;5.80;99.90;;;;;;4995196;28;20204;-78
2023/02/28 11:31:19;;;;;;;6.23;5.63;;;5.80;99.90;;;;;;4996672;28;20199;-78
2023/02/28 11:33:48;;;;;;;8.77;5.23;;;5.80;99.90;;;;;;5012922;28;20293;-79
2023/02/28 11:36:19;;;;;;;7.80;5.03;;;5.80;99.90;;;;;;5015094;28;20202;-79
2023/02/28 11:38:46;;;;;;;10.63;5.10;;;5.90;99.90;;;;;;5016605;28;20202;-78
2023/02/28 11:41:47;;;;;;;7.23;4.67;;;6.00;99.90;;;;;;5009855;28;20614;-78
2023/02/28 11:44:36;;;;;;;5.33;3.83;;;6.00;99.90;;;;;;5013207;28;20207;-78
2023/02/28 11:47:13;;;;;;;4.87;3.67;;;6.20;99.90;;;;;;5001024;28;20271;-78
2023/02/28 11:49:49;;;;;;;4.03;3.20;;;6.10;99.90;;;;;;5015777;28;20682;-78
2023/02/28 11:52:23;;;;;;;3.93;3.27;;;6.20;99.90;;;;;;5015173;28;20242;-80
2023/02/28 11:55:14;;;;;;;4.23;3.10;;;6.30;99.90;;;;;;5015169;28;20270;-80
2023/02/28 11:58:16;;;;;;;4.93;3.23;;;6.30;99.90;;;;;;5015334;28;20278;-77
2023/02/28 12:01:01;;;;;;;3.37;2.47;;;6.30;99.90;;;;;;5005715;28;20285;-79
2023/02/28 12:03:41;;;;;;;3.60;2.93;;;6.40;99.90;;;;;;4994876;28;20319;-79
2023/02/28 12:06:19;;;;;;;5.70;2.57;;;6.50;99.90;;;;;;4994343;28;20238;-79
2023/02/28 12:08:54;;;;;;;4.53;2.63;;;6.50;99.90;;;;;;4994116;28;20290;-75
2023/02/28 12:11:35;;;;;;;4.27;2.50;;;6.60;99.90;;;;;;4995229;28;20207;-79
2023/02/28 12:14:20;;;;;;;3.70;3.20;;;6.70;99.90;;;;;;4995295;28;20194;-80
2023/02/28 12:16:55;;;;;;;3.47;2.90;;;6.80;99.90;;;;;;5009342;28;20298;-79
2023/02/28 12:19:29;;;;;;;5.23;2.80;;;6.90;99.90;;;;;;5008946;28;20191;-79
2023/02/28 12:22:10;;;;;;;3.90;3.20;;;7.10;99.90;;;;;;4995078;28;20222;-80
2023/02/28 12:25:04;;;;;;;4.93;3.90;;;7.10;99.90;;;;;;5005913;28;20199;-78
2023/02/28 12:27:37;;;;;;;5.67;2.90;;;7.20;99.90;;;;;;5001784;28;20195;-77
2023/02/28 12:30:14;;;;;;;3.40;2.80;;;7.40;99.90;;;;;;5010267;28;20299;-78
2023/02/28 12:32:45;;;;;;;3.70;2.80;;;7.50;99.90;;;;;;5006243;28;20559;-77
2023/02/28 12:35:19;;;;;;;3.43;2.47;;;7.70;99.90;;;;;;5007775;28;20662;-78
2023/02/28 12:37:50;;;;;;;3.80;2.83;;;7.60;99.90;;;;;;5013809;28;20294;-78
2023/02/28 12:40:21;;;;;;;5.47;3.07;;;7.70;99.90;;;;;;5013676;28;20677;-78
2023/02/28 12:42:52;;;;;;;4.10;2.60;;;7.80;99.90;;;;;;5012719;28;20219;-79
2023/02/28 12:45:23;;;;;;;4.33;2.70;;;7.80;99.90;;;;;;5014872;28;20210;-78
2023/02/28 12:47:57;;;;;;;3.93;2.80;;;7.80;99.90;;;;;;5014124;28;20213;-78
2023/02/28 12:50:27;;;;;;;3.80;2.67;;;7.80;99.90;;;;;;4996028;28;20217;-77
2023/02/28 12:52:59;;;;;;;4.10;2.93;;;7.80;99.90;;;;;;5014498;28;20199;-77
2023/02/28 12:55:36;;;;;;;2.30;2.10;;;7.90;99.90;;;;;;5013359;28;20196;-77
2023/02/28 12:58:12;;;;;;;4.07;2.63;;;7.90;99.90;;;;;;5013291;28;20210;-79
2023/02/28 13:00:51;;;;;;;4.63;2.30;;;8.00;99.90;;;;;;5012933;28;20584;-79
2023/02/28 13:04:00;;;;;;;3.30;2.30;;;8.10;99.90;;;;;;5012405;28;20316;-77
2023/02/28 13:06:45;;;;;;;3.37;2.37;;;8.00;99.90;;;;;;4939404;28;20288;-79
2023/02/28 13:09:14;;;;;;;2.77;1.83;;;7.90;99.90;;;;;;5006524;28;20215;-79
2023/02/28 13:11:43;;;;;;;2.83;1.83;;;8.00;99.90;;;;;;4992782;28;20474;-78
2023/02/28 13:14:25;;;;;;;3.63;2.00;;;8.00;99.90;;;;;;4994259;28;20290;-79
2023/02/28 13:16:57;;;;;;;3.07;1.77;;;8.10;99.90;;;;;;5010960;28;20199;-79
2023/02/28 13:19:28;;;;;;;1.93;1.50;;;8.00;99.90;;;;;;5013800;28;20612;-78
2023/02/28 13:21:58;;;;;;;1.83;1.50;;;8.00;99.90;;;;;;5013656;28;20276;-77
2023/02/28 13:24:42;;;;;;;2.23;1.90;;;8.00;99.90;;;;;;5014412;28;20202;-77
2023/02/28 13:27:31;;;;;;;2.53;1.90;;;8.00;99.90;;;;;;5012836;28;20290;-78
2023/02/28 13:29:58;;;;;;;1.83;1.67;;;7.90;99.90;;;;;;4999973;28;20246;-79